Bei Facebook empfehlenBei Twitter postenGoogle plusPinterest

Das Wetter im Erzgebirge am 26.01.2016

Wetter und Klima am 26.01.2016 Holzhau im Erzgebirge (630m ü.NN)
Letzte gemessene Temperatur und Uhrzeit der Messung23:45:00 Uhr6.30 °C
Temperatur (Maximum / Höchstwert) und Uhrzeit der Messung13:15:00 Uhr8.70 °C
Temperatur (Minimum / Tiefstwert) und Uhrzeit der Messung04:45:000.10 °C
Errechneter Absolutwert der Temperaturschwankungen zwischen Tmin und Tmax des Tages8.60 K
Errechnete Tagesmitteltemperatur4.01563 °C
Gesamt - Niederschlag des Tages (in flüssiger Form)0.51 Liter / m²
Luftdruck (Maximum / Höchstwert) und Zeitpunkt der Messung09:45:00 Uhr1021.30 hPa
Luftdruck (Minimum / Tiefstwert) und Zeitpunkt der Messung23:45:00 Uhr1016.50 hPa
Errechneter Absolutwert der Luftdruckschwankungen des Tages4.80 hPa
Höchste gemessene Windgeschwindigkeit und Uhrzeit der Messung22:45:00 Uhr183.60 km/h
Errechnete Windhäufigkeit in Relation zu den Messwerten des Tages21.87500 %
Niedrigste Windkühle (Windchill) und Zeitpunkt der Messung22:45:00 Uhr-4.00 °C
Taupunkt (Maximum / Höchstwert) und Uhrzeit der Messung13:15:00 Uhr8.40 °C
Taupunkt (Minimum / Tiefstwert) und Uhrzeit der Messung04:45:00-0.50 °C
Anzahl der automatisch eingelesenen Messwerte 96

Detaillierte Wetter- und Klima- Messwerte für den 26.01.2016 in Holzhau im Erzgebirge (630m ü.NN)
ZeitTemperaturLuftdruckRel. LuftfeuchteWindWindrichtungWindchillTaupunktNiederschlag l/m²
23:45:006.30 °C1016.50 hPa93.00 %2.52 km/hW6.30 °C5.30 °C0.51
23:30:006.30 °C1016.80 hPa94.00 %5.40 °C0.51
23:15:006.40 °C1016.80 hPa95.00 %8.64 km/hW4.60 °C5.70 °C0.51
23:00:006.10 °C1016.80 hPa95.00 %8.64 km/hW4.30 °C5.40 °C0.51
22:45:005.90 °C1016.90 hPa96.00 %183.60 km/hW-4.00 °C5.30 °C0.51
22:30:005.90 °C1016.90 hPa96.00 %5.30 °C0.51
22:15:005.80 °C1017.10 hPa96.00 %3.96 km/hNW5.80 °C5.20 °C0.51
22:00:005.80 °C1017.10 hPa97.00 %2.16 km/hSSW5.80 °C5.40 °C0.51
21:45:005.90 °C1017.30 hPa97.00 %5.50 °C0.51
21:30:005.80 °C1017.50 hPa97.00 %7.92 km/hNW4.10 °C5.40 °C0.51
21:15:005.60 °C1017.40 hPa97.00 %4.68 km/hW5.60 °C5.20 °C0.51
21:00:005.10 °C1017.50 hPa97.00 %10.08 km/hSW2.80 °C4.70 °C0.51
20:45:004.30 °C1017.60 hPa97.00 %3.90 °C0.51
20:30:003.90 °C1017.60 hPa96.00 %3.30 °C0.51
20:15:004.50 °C1017.70 hPa97.00 %4.10 °C0.51
20:00:003.90 °C1017.70 hPa97.00 %9.36 km/hWNW1.50 °C3.50 °C0.51
19:45:003.90 °C1017.90 hPa97.00 %3.50 °C0.51
19:30:003.80 °C1017.90 hPa97.00 %3.96 km/hOSO3.80 °C3.40 °C0.51
19:15:004.10 °C1018.40 hPa96.00 %3.50 °C0.51
19:00:004.90 °C1018.40 hPa96.00 %4.30 °C0.51
18:45:005.90 °C1018.40 hPa97.00 %5.50 °C0.51
18:30:006.80 °C1018.50 hPa97.00 %6.40 °C0.51
18:15:006.90 °C1018.50 hPa97.00 %6.50 °C0.51
18:00:006.90 °C1018.70 hPa97.00 %8.64 km/hSW5.20 °C6.50 °C0.51
17:45:007.00 °C1018.60 hPa97.00 %6.60 °C0.51
17:30:006.60 °C1018.70 hPa97.00 %6.20 °C0.51
17:15:006.50 °C1018.40 hPa97.00 %6.10 °C0.51
17:00:006.10 °C1018.70 hPa97.00 %3.24 km/hSW6.10 °C5.70 °C0.51
16:45:005.90 °C1018.90 hPa97.00 %5.50 °C0.51
16:30:004.80 °C1019.20 hPa97.00 %2.16 km/hSW4.80 °C4.40 °C0.51
16:15:004.50 °C1019.40 hPa97.00 %4.10 °C0.51
16:00:004.60 °C1019.30 hPa97.00 %4.20 °C0.51
15:45:004.90 °C1019.40 hPa97.00 %4.50 °C0.51
15:30:004.80 °C1019.40 hPa97.00 %4.40 °C0.51
15:15:005.10 °C1019.60 hPa97.00 %1.08 km/hOSO5.10 °C4.70 °C0.51
15:00:005.10 °C1019.70 hPa97.00 %2.88 km/hOSO5.10 °C4.70 °C0.51
14:45:005.50 °C1019.60 hPa97.00 %5.10 °C0.51
14:30:005.80 °C1019.90 hPa97.00 %5.40 °C0.51
14:15:006.30 °C1019.90 hPa97.00 %5.90 °C0.51
14:00:007.00 °C1020.10 hPa97.00 %6.60 °C0.51
13:45:008.30 °C1020.10 hPa97.00 %7.90 °C0.51
13:30:008.60 °C1020.40 hPa97.00 %8.20 °C0.51
13:15:008.70 °C1020.50 hPa98.00 %8.40 °C0.51
13:00:008.50 °C1020.50 hPa98.00 %8.20 °C0.51
12:45:008.60 °C1020.60 hPa98.00 %8.30 °C0.51
12:30:008.70 °C1020.60 hPa98.00 %8.40 °C0.51
12:15:008.60 °C1020.80 hPa98.00 %8.30 °C0.51
12:00:008.10 °C1021.10 hPa98.00 %7.80 °C0.51
11:45:007.70 °C1021.00 hPa98.00 %7.40 °C0.51
11:30:007.80 °C1021.00 hPa98.00 %7.50 °C0.51
11:15:007.30 °C1021.10 hPa98.00 %7.00 °C0.51
11:00:006.90 °C1021.00 hPa98.00 %6.60 °C 
10:45:006.60 °C1021.00 hPa97.00 %6.20 °C 
10:30:006.20 °C1021.00 hPa97.00 %5.80 °C 
10:15:005.60 °C1021.10 hPa97.00 %5.20 °C 
10:00:005.20 °C1021.10 hPa97.00 %2.52 km/hSW5.20 °C4.80 °C 
09:45:004.90 °C1021.30 hPa98.00 %5.76 km/hSW3.70 °C4.60 °C 
09:30:004.30 °C1021.20 hPa97.00 %4.32 km/hSW4.30 °C3.90 °C 
09:15:003.30 °C1021.00 hPa97.00 %2.90 °C 
09:00:001.80 °C1020.60 hPa97.00 %1.40 °C 
08:45:001.50 °C1020.60 hPa97.00 %1.10 °C 
08:30:001.50 °C1020.50 hPa97.00 %1.10 °C 
08:15:001.60 °C1020.50 hPa97.00 %1.20 °C 
08:00:001.30 °C1020.50 hPa97.00 %0.90 °C 
07:45:001.30 °C1020.60 hPa97.00 %0.90 °C 
07:30:001.30 °C1020.40 hPa97.00 %0.90 °C 
07:15:001.30 °C1020.30 hPa96.00 %0.70 °C 
07:00:001.30 °C1020.30 hPa97.00 %0.90 °C 
06:45:001.30 °C1020.20 hPa97.00 %0.90 °C 
06:30:001.50 °C1020.10 hPa97.00 %1.10 °C 
06:15:001.80 °C1020.10 hPa97.00 %1.40 °C 
06:00:001.60 °C1020.30 hPa97.00 %1.20 °C 
05:45:001.50 °C1020.30 hPa97.00 %1.10 °C 
05:30:001.40 °C1020.30 hPa97.00 %1.00 °C 
05:15:001.30 °C1020.30 hPa97.00 %0.90 °C 
05:00:000.50 °C1020.50 hPa97.00 %0.10 °C 
04:45:000.10 °C1020.70 hPa96.00 %-0.50 °C 
04:30:000.10 °C1020.70 hPa96.00 %-0.50 °C 
04:15:000.20 °C1021.00 hPa96.00 %-0.40 °C 
04:00:000.30 °C1020.70 hPa96.00 %-0.30 °C 
03:45:000.30 °C1020.70 hPa96.00 %-0.30 °C 
03:30:000.30 °C1020.50 hPa97.00 %-0.10 °C 
03:15:000.10 °C1020.60 hPa96.00 %-0.50 °C 
03:00:000.10 °C1020.50 hPa96.00 %-0.50 °C 
02:45:000.10 °C1020.50 hPa96.00 %-0.50 °C 
02:30:000.40 °C1020.60 hPa96.00 %-0.20 °C 
02:15:000.10 °C1020.60 hPa96.00 %-0.50 °C 
02:00:000.30 °C1020.80 hPa96.00 %-0.30 °C 
01:45:000.40 °C1020.70 hPa96.00 %1.44 km/hSO0.40 °C-0.20 °C 
01:30:000.50 °C1020.30 hPa96.00 %-0.10 °C 
01:15:000.50 °C1020.40 hPa96.00 %-0.10 °C 
01:00:000.60 °C1020.60 hPa96.00 %0.00 °C 
00:45:000.80 °C1020.50 hPa96.00 %0.20 °C 
00:30:000.50 °C1020.30 hPa96.00 %3.24 km/hONO0.50 °C-0.10 °C 
00:15:000.40 °C1020.70 hPa96.00 %-0.20 °C 
00:00:000.50 °C1020.90 hPa96.00 %-0.10 °C 

Permanenter Link zu dieser Seite: Wetter im Erzgebirge am 26.01.2016
Performance-Info: Die Erstellung der Seite / Statistik(en) / Tabelle(n) erforderte 5 Datenbankserver-Abfrage(n) und dauerte 99 Millisekunden. (Dieser Messwert ist von der Gesamt-Auslastung des Servers abhängig.)
Erzgebirge - Wetter | Erzgebirge - Wetter (Mobilgeräte) | Komplette Klimadatenbank